Latest Coastal Weather Observations for Ngayawili (Elcho Island)

IDD60701

Issued at 5:01 pm CST Friday 18 September 2020 (issued every 10 minutes, with the page automatically refreshed every 10 minutes)

About coastal observations | Map of coastal stations | Coastal observations for NT | Marine services | Other Formats
Station Details ID: 014517 Name: NGAYAWILI Lat: -12.00 Lon: 135.57 Height: 8.1 m
Data from the previous 72 hours. | See also: Recent months at Ngayawili (Elcho Island)
Date/Time
CST
Wind Sea
Height
m
Swell Vis
km
Cloud Weather Temp
°C
Press
hPa
Rain since
9am
mm
Dir  Spd
kts
Gust
kts
Height
m
Period
s
Dir
18/05:00pm ENE 12 17 - - - - - - - - 1010.4 0.0
18/04:30pm ENE 11 17 - - - - - - - - 1010.2 0.0
18/04:00pm ENE 11 21 - - - - - - - - 1010.1 0.0
18/03:30pm ENE 11 16 - - - - - - - - 1010.1 0.0
18/03:00pm ENE 11 19 - - - - - - - - 1010.4 0.0
18/02:30pm ENE 12 18 - - - - - - - - 1010.8 0.0
18/02:00pm ENE 13 18 - - - - - - - - 1011.0 0.0
18/01:30pm E 9 19 - - - - - - - - 1011.7 0.0
18/01:00pm ENE 11 19 - - - - - - - - 1012.2 0.0
18/12:30pm ESE 9 14 - - - - - - - - 1012.5 0.0
18/12:00pm ESE 11 15 - - - - - - - - 1013.0 0.0
18/11:30am E 10 15 - - - - - - - - 1013.4 0.0
18/11:00am E 7 12 - - - - - - - - 1013.8 0.0
18/10:30am ESE 9 16 - - - - - - - - 1014.1 0.0
18/10:00am ESE 10 14 - - - - - - - - 1014.3 0.0
18/09:30am ESE 9 14 - - - - - - - - 1014.2 0.0
18/09:00am ESE 7 13 - - - - - - - - 1014.1 0.0
18/08:30am ESE 9 14 - - - - - - - - 1013.8 0.0
18/08:00am SE 8 12 - - - - - - - - 1013.4 0.0
18/07:30am SE 6 10 - - - - - - - - 1013.1 0.0
18/07:00am SE 5 7 - - - - - - - - 1012.7 0.0
18/06:30am SE 3 5 - - - - - - - - 1012.5 0.0
18/06:00am SE 4 7 - - - - - - - - 1012.0 0.0
18/05:30am SE 5 7 - - - - - - - - 1011.7 0.0
18/05:00am SE 5 7 - - - - - - - - 1011.5 0.0
18/04:30am SE 5 7 - - - - - - - - 1011.4 0.0
18/04:00am SE 5 7 - - - - - - - - 1011.3 0.0
18/03:30am SE 5 7 - - - - - - - - 1011.4 0.0
18/03:00am SE 5 7 - - - - - - - - 1011.4 0.0
18/02:30am SE 6 9 - - - - - - - - 1011.5 0.0
18/02:00am SE 5 8 - - - - - - - - 1011.8 0.0
18/01:30am SE 5 8 - - - - - - - - 1011.9 0.0
18/01:00am SE 5 7 - - - - - - - - 1012.2 0.0
18/12:30am ESE 5 8 - - - - - - - - 1012.6 0.0
18/12:00am SE 5 8 - - - - - - - - 1012.9 0.0
 
Date/Time
CST
Wind Sea
Height
m
Swell Vis
km
Cloud Weather Temp
°C
Press
hPa
Rain since
9am
mm
Dir  Spd
kts
Gust
kts
Height
m
Period
s
Dir
17/11:30pm SE 6 9 - - - - - - - - 1013.0 0.0
17/11:00pm ESE 6 8 - - - - - - - - 1012.9 0.0
17/10:30pm ESE 5 7 - - - - - - - - 1012.9 0.0
17/10:00pm ESE 6 11 - - - - - - - - 1012.7 0.0
17/09:30pm ESE 7 11 - - - - - - - - 1012.6 0.0
17/09:00pm ESE 7 12 - - - - - - - - 1012.4 0.0
17/08:30pm E 5 8 - - - - - - - - 1012.3 0.0
17/08:00pm E 5 7 - - - - - - - - 1012.0 0.0
17/07:30pm E 6 11 - - - - - - - - 1011.4 0.0
17/07:00pm E 8 12 - - - - - - - - 1011.0 0.0
17/06:30pm E 9 15 - - - - - - - - 1010.7 0.0
17/06:00pm ENE 9 15 - - - - - - - - 1010.4 0.0
17/05:30pm E 11 19 - - - - - - - - 1010.0 0.0
17/05:00pm E 11 19 - - - - - - - - 1009.6 0.0
17/04:30pm ENE 10 19 - - - - - - - - 1009.5 0.0
17/04:00pm NE 12 20 - - - - - - - - 1009.7 0.0
17/03:30pm NE 13 17 - - - - - - - - 1009.8 0.0
17/03:00pm NE 12 18 - - - - - - - - 1010.2 0.0
17/02:30pm NNE 13 18 - - - - - - - - 1010.6 0.0
17/02:00pm ENE 8 14 - - - - - - - - 1011.1 0.0
17/01:30pm E 8 16 - - - - - - - - 1011.3 0.0
17/01:00pm E 10 16 - - - - - - - - 1011.7 0.0
17/12:30pm ESE 8 13 - - - - - - - - 1012.3 0.0
17/12:00pm ESE 9 18 - - - - - - - - 1012.6 0.0
17/11:30am ENE 11 20 - - - - - - - - 1013.1 0.0
17/11:00am ENE 11 19 - - - - - - - - 1013.6 0.0
17/10:30am ESE 9 15 - - - - - - - - 1013.9 0.0
17/10:00am ESE 10 15 - - - - - - - - 1014.1 0.0
17/09:30am ESE 9 13 - - - - - - - - 1014.2 0.0
17/09:00am E 7 12 - - - - - - - - 1014.0 0.0
17/08:30am ESE 6 13 - - - - - - - - 1013.8 0.0
17/08:00am SE 5 9 - - - - - - - - 1013.6 0.0
17/07:30am SE 5 7 - - - - - - - - 1013.3 0.0
17/07:00am SE 4 5 - - - - - - - - 1013.0 0.0
17/06:30am SE 4 6 - - - - - - - - 1012.4 0.0
17/06:00am SSE 5 7 - - - - - - - - 1012.1 0.0
17/05:30am SE 5 6 - - - - - - - - 1011.9 0.0
17/05:00am SE 4 6 - - - - - - - - 1011.9 0.0
17/04:30am SE 4 6 - - - - - - - - 1011.8 0.0
17/04:00am SSE 4 5 - - - - - - - - 1011.7 0.0
17/03:30am SE 4 6 - - - - - - - - 1011.6 0.0
17/03:00am SSE 4 6 - - - - - - - - 1011.7 0.0
17/02:30am SSE 4 5 - - - - - - - - 1011.9 0.0
17/02:00am SE 3 5 - - - - - - - - 1012.3 0.0
17/01:30am SE 5 7 - - - - - - - - 1012.4 0.0
17/01:00am ESE 4 6 - - - - - - - - 1013.0 0.0
17/12:30am ESE 5 7 - - - - - - - - 1013.1 0.0
17/12:00am ESE 6 9 - - - - - - - - 1013.3 0.0
 
Date/Time
CST
Wind Sea
Height
m
Swell Vis
km
Cloud Weather Temp
°C
Press
hPa
Rain since
9am
mm
Dir  Spd
kts
Gust
kts
Height
m
Period
s
Dir
16/11:30pm ESE 5 8 - - - - - - - - 1013.4 0.0
16/11:00pm ESE 5 9 - - - - - - - - 1013.4 0.0
16/10:30pm E 5 8 - - - - - - - - 1013.6 0.0
16/10:00pm E 6 9 - - - - - - - - 1013.6 0.0
16/09:30pm E 6 9 - - - - - - - - 1013.4 0.0
16/09:00pm E 6 8 - - - - - - - - 1013.3 0.0
16/08:30pm E 7 11 - - - - - - - - 1012.9 0.0
16/08:00pm ENE 7 11 - - - - - - - - 1012.7 0.0
16/07:30pm ENE 6 11 - - - - - - - - 1012.3 0.0
16/07:00pm ENE 9 16 - - - - - - - - 1012.0 0.0
16/06:30pm ENE 8 15 - - - - - - - - 1011.7 0.0
16/06:00pm ENE 8 14 - - - - - - - - 1011.5 0.0
16/05:30pm E 9 15 - - - - - - - - 1011.2 0.0
16/05:00pm ENE 9 14 - - - - - - - - 1011.2 0.0
16/04:30pm NE 11 17 - - - - - - - - 1011.1 0.0
16/04:00pm ENE 9 14 - - - - - - - - 1011.0 0.0
16/03:30pm ENE 11 17 - - - - - - - - 1010.9 0.0
16/03:00pm E 9 16 - - - - - - - - 1011.0 0.0
16/02:30pm NE 10 16 - - - - - - - - 1011.3 0.0
16/02:00pm ENE 9 13 - - - - - - - - 1011.8 0.0
16/01:30pm E 9 14 - - - - - - - - 1012.3 0.0
16/01:00pm ESE 9 15 - - - - - - - - 1012.6 0.0
16/12:30pm ESE 10 17 - - - - - - - - 1013.0 0.0
16/12:00pm E 11 19 - - - - - - - - 1013.5 0.0
16/11:30am ESE 11 21 - - - - - - - - 1013.9 0.0
16/11:00am ESE 9 20 - - - - - - - - 1014.2 0.0
16/10:30am E 11 20 - - - - - - - - 1014.5 0.0
16/10:00am ESE 10 18 - - - - - - - - 1014.6 0.0
16/09:30am E 12 18 - - - - - - - - 1014.5 0.0
16/09:00am E 10 16 - - - - - - - - 1014.4 0.0
16/08:30am ESE 6 12 - - - - - - - - 1014.4 0.0
16/08:00am SE 6 11 - - - - - - - - 1014.2 0.0
16/07:30am SE 6 10 - - - - - - - - 1013.9 0.0
16/07:00am SE 5 8 - - - - - - - - 1013.4 0.0
16/06:30am SE 6 10 - - - - - - - - 1012.8 0.0
16/06:00am ESE 6 9 - - - - - - - - 1012.5 0.0
16/05:30am ESE 6 8 - - - - - - - - 1012.3 0.0
16/05:00am SE 6 9 - - - - - - - - 1012.0 0.0
16/04:30am SE 6 8 - - - - - - - - 1011.9 0.0
16/04:00am ESE 5 7 - - - - - - - - 1011.8 0.0
16/03:30am ESE 5 7 - - - - - - - - 1011.7 0.0
16/03:00am ESE 5 7 - - - - - - - - 1011.9 0.0
16/02:30am ESE 5 7 - - - - - - - - 1012.1 0.0
16/02:00am ESE 6 10 - - - - - - - - 1012.5 0.0
16/01:30am SE 8 13 - - - - - - - - 1012.6 0.0
16/01:00am SE 9 13 - - - - - - - - 1012.7 0.0
16/12:30am SE 9 14 - - - - - - - - 1013.1 0.0
16/12:00am SE 8 13 - - - - - - - - 1013.5 0.0
 
Date/Time
CST
Wind Sea
Height
m
Swell Vis
km
Cloud Weather Temp
°C
Press
hPa
Rain since
9am
mm
Dir  Spd
kts
Gust
kts
Height
m
Period
s
Dir
15/11:30pm SE 8 12 - - - - - - - - 1013.9 0.0
15/11:00pm ESE 7 12 - - - - - - - - 1014.0 0.0
15/10:30pm ESE 10 15 - - - - - - - - 1014.1 0.0
15/10:00pm ESE 8 13 - - - - - - - - 1014.2 0.0
15/09:30pm ESE 8 13 - - - - - - - - 1014.0 0.0
15/09:00pm E 5 8 - - - - - - - - 1013.8 0.0
15/08:30pm ENE 5 7 - - - - - - - - 1013.6 0.0
15/08:00pm E 5 9 - - - - - - - - 1013.1 0.0
15/07:30pm E 6 9 - - - - - - - - 1012.8 0.0
15/07:00pm E 7 14 - - - - - - - - 1012.4 0.0
15/06:30pm E 8 14 - - - - - - - - 1012.1 0.0
15/06:00pm E 9 13 - - - - - - - - 1011.6 0.0
15/05:30pm E 12 19 - - - - - - - - 1011.4 0.0

Other formats

Comma delimited format used in spreadsheet applications
http://www.bom.gov.au/fwo/IDD60701/IDD60701.95146.axf

JavaScript Object Notation format (JSON) in row-major order
http://www.bom.gov.au/fwo/IDD60701/IDD60701.95146.json

Data quality

Most of these data are generated automatically and are frequently updated. Quality checks on data are not normally performed. It is possible for incorrect values to appear. Refer to information at About Latest Weather Observations and please check the disclaimer before using these data.